sensor_id;sensor_type;location;lat;lon;timestamp;temperature;humidity
64833;HTU21D;51290;45.060;38.948;2022-10-16T00:00:42;10.73;60.13
64833;HTU21D;51290;45.060;38.948;2022-10-16T00:03:08;10.71;60.36
64833;HTU21D;51290;45.060;38.948;2022-10-16T00:05:38;10.70;60.89
64833;HTU21D;51290;45.060;38.948;2022-10-16T00:08:04;10.70;60.48
64833;HTU21D;51290;45.060;38.948;2022-10-16T00:10:30;10.70;60.45
64833;HTU21D;51290;45.060;38.948;2022-10-16T00:12:55;10.70;60.52
64833;HTU21D;51290;45.060;38.948;2022-10-16T00:15:21;10.69;60.91
64833;HTU21D;51290;45.060;38.948;2022-10-16T00:17:47;10.70;60.95
64833;HTU21D;51290;45.060;38.948;2022-10-16T00:20:13;10.67;61.25
64833;HTU21D;51290;45.060;38.948;2022-10-16T00:22:38;10.68;60.62
64833;HTU21D;51290;45.060;38.948;2022-10-16T00:25:05;10.66;60.77
64833;HTU21D;51290;45.060;38.948;2022-10-16T00:27:31;10.64;60.57
64833;HTU21D;51290;45.060;38.948;2022-10-16T00:29:56;10.64;60.89
64833;HTU21D;51290;45.060;38.948;2022-10-16T00:32:23;10.64;60.90
64833;HTU21D;51290;45.060;38.948;2022-10-16T00:34:49;10.64;60.64
64833;HTU21D;51290;45.060;38.948;2022-10-16T00:37:15;10.64;61.65
64833;HTU21D;51290;45.060;38.948;2022-10-16T00:39:41;10.66;61.25
64833;HTU21D;51290;45.060;38.948;2022-10-16T00:42:06;10.66;61.28
64833;HTU21D;51290;45.060;38.948;2022-10-16T00:44:43;10.68;61.02
64833;HTU21D;51290;45.060;38.948;2022-10-16T00:47:09;10.68;60.80
64833;HTU21D;51290;45.060;38.948;2022-10-16T00:49:36;10.68;60.69
64833;HTU21D;51290;45.060;38.948;2022-10-16T00:52:02;10.68;60.88
64833;HTU21D;51290;45.060;38.948;2022-10-16T00:54:29;10.68;60.82
64833;HTU21D;51290;45.060;38.948;2022-10-16T00:56:56;10.68;61.02
64833;HTU21D;51290;45.060;38.948;2022-10-16T00:59:29;10.69;61.41
64833;HTU21D;51290;45.060;38.948;2022-10-16T01:01:56;10.70;61.58
64833;HTU21D;51290;45.060;38.948;2022-10-16T01:04:23;10.73;61.29
64833;HTU21D;51290;45.060;38.948;2022-10-16T01:06:51;10.74;61.92
64833;HTU21D;51290;45.060;38.948;2022-10-16T01:09:22;10.79;61.54
64833;HTU21D;51290;45.060;38.948;2022-10-16T01:14:22;10.77;61.21
64833;HTU21D;51290;45.060;38.948;2022-10-16T01:16:55;10.78;61.41
64833;HTU21D;51290;45.060;38.948;2022-10-16T01:19:36;10.78;61.29
64833;HTU21D;51290;45.060;38.948;2022-10-16T01:22:04;10.75;61.28
64833;HTU21D;51290;45.060;38.948;2022-10-16T01:24:40;10.75;61.14
64833;HTU21D;51290;45.060;38.948;2022-10-16T01:34:59;10.71;61.88
64833;HTU21D;51290;45.060;38.948;2022-10-16T01:40:13;10.67;61.63
64833;HTU21D;51290;45.060;38.948;2022-10-16T01:42:44;10.64;61.48
64833;HTU21D;51290;45.060;38.948;2022-10-16T01:45:12;10.59;61.31
64833;HTU21D;51290;45.060;38.948;2022-10-16T01:47:39;10.55;61.56
64833;HTU21D;51290;45.060;38.948;2022-10-16T01:50:06;10.52;61.46
64833;HTU21D;51290;45.060;38.948;2022-10-16T01:52:34;10.49;61.29
64833;HTU21D;51290;45.060;38.948;2022-10-16T01:55:03;10.45;61.55
64833;HTU21D;51290;45.060;38.948;2022-10-16T01:57:29;10.41;61.38
64833;HTU21D;51290;45.060;38.948;2022-10-16T01:59:56;10.39;61.48
64833;HTU21D;51290;45.060;38.948;2022-10-16T02:02:24;10.36;61.47
64833;HTU21D;51290;45.060;38.948;2022-10-16T02:04:57;10.34;61.55
64833;HTU21D;51290;45.060;38.948;2022-10-16T02:07:24;10.33;61.80
64833;HTU21D;51290;45.060;38.948;2022-10-16T02:09:50;10.30;62.03
64833;HTU21D;51290;45.060;38.948;2022-10-16T02:12:22;10.28;61.77
64833;HTU21D;51290;45.060;38.948;2022-10-16T02:14:49;10.27;62.08
64833;HTU21D;51290;45.060;38.948;2022-10-16T02:17:16;10.24;61.90
64833;HTU21D;51290;45.060;38.948;2022-10-16T02:19:43;10.23;62.46
64833;HTU21D;51290;45.060;38.948;2022-10-16T02:22:10;10.20;61.92
64833;HTU21D;51290;45.060;38.948;2022-10-16T02:25:01;10.19;62.39
64833;HTU21D;51290;45.060;38.948;2022-10-16T02:30:24;10.18;62.73
64833;HTU21D;51290;45.060;38.948;2022-10-16T02:32:51;10.16;62.50
64833;HTU21D;51290;45.060;38.948;2022-10-16T02:35:18;10.18;62.57
64833;HTU21D;51290;45.060;38.948;2022-10-16T02:37:46;10.18;62.50
64833;HTU21D;51290;45.060;38.948;2022-10-16T02:40:11;10.15;62.75
64833;HTU21D;51290;45.060;38.948;2022-10-16T02:42:38;10.15;62.65
64833;HTU21D;51290;45.060;38.948;2022-10-16T02:45:05;10.15;62.67
64833;HTU21D;51290;45.060;38.948;2022-10-16T02:47:32;10.15;62.41
64833;HTU21D;51290;45.060;38.948;2022-10-16T02:49:57;10.14;63.37
64833;HTU21D;51290;45.060;38.948;2022-10-16T02:52:23;10.13;63.66
64833;HTU21D;51290;45.060;38.948;2022-10-16T02:54:49;10.12;62.82
64833;HTU21D;51290;45.060;38.948;2022-10-16T02:57:15;10.11;62.84
64833;HTU21D;51290;45.060;38.948;2022-10-16T02:59:41;10.09;62.74
64833;HTU21D;51290;45.060;38.948;2022-10-16T03:02:06;10.07;62.82
64833;HTU21D;51290;45.060;38.948;2022-10-16T03:04:32;10.05;62.63
64833;HTU21D;51290;45.060;38.948;2022-10-16T03:06:58;10.03;63.27
64833;HTU21D;51290;45.060;38.948;2022-10-16T03:09:24;10.03;63.13
64833;HTU21D;51290;45.060;38.948;2022-10-16T03:11:50;10.00;63.59
64833;HTU21D;51290;45.060;38.948;2022-10-16T03:14:15;10.01;63.31
64833;HTU21D;51290;45.060;38.948;2022-10-16T03:16:42;10.00;63.34
64833;HTU21D;51290;45.060;38.948;2022-10-16T03:19:08;9.99;63.73
64833;HTU21D;51290;45.060;38.948;2022-10-16T03:21:33;9.99;64.79
64833;HTU21D;51290;45.060;38.948;2022-10-16T03:23:59;10.01;63.46
64833;HTU21D;51290;45.060;38.948;2022-10-16T03:26:25;10.00;63.47
64833;HTU21D;51290;45.060;38.948;2022-10-16T03:28:50;9.99;63.83
64833;HTU21D;51290;45.060;38.948;2022-10-16T03:31:16;9.99;63.72
64833;HTU21D;51290;45.060;38.948;2022-10-16T03:33:42;10.01;64.18
64833;HTU21D;51290;45.060;38.948;2022-10-16T03:36:08;10.01;63.91
64833;HTU21D;51290;45.060;38.948;2022-10-16T03:38:33;10.03;65.66
64833;HTU21D;51290;45.060;38.948;2022-10-16T03:40:59;10.05;64.10
64833;HTU21D;51290;45.060;38.948;2022-10-16T03:43:25;10.05;65.55
64833;HTU21D;51290;45.060;38.948;2022-10-16T03:45:51;10.04;66.05
64833;HTU21D;51290;45.060;38.948;2022-10-16T03:48:17;10.07;65.64
64833;HTU21D;51290;45.060;38.948;2022-10-16T03:50:43;10.10;65.97
64833;HTU21D;51290;45.060;38.948;2022-10-16T03:53:09;10.13;65.42
64833;HTU21D;51290;45.060;38.948;2022-10-16T03:55:34;10.14;65.50
64833;HTU21D;51290;45.060;38.948;2022-10-16T03:58:00;10.16;64.73
64833;HTU21D;51290;45.060;38.948;2022-10-16T04:00:26;10.18;66.45
64833;HTU21D;51290;45.060;38.948;2022-10-16T04:02:52;10.20;65.34
64833;HTU21D;51290;45.060;38.948;2022-10-16T04:05:18;10.23;65.57
64833;HTU21D;51290;45.060;38.948;2022-10-16T04:07:44;10.24;65.24
64833;HTU21D;51290;45.060;38.948;2022-10-16T04:10:09;10.27;65.22
64833;HTU21D;51290;45.060;38.948;2022-10-16T04:12:35;10.29;64.83
64833;HTU21D;51290;45.060;38.948;2022-10-16T04:15:01;10.31;65.30
64833;HTU21D;51290;45.060;38.948;2022-10-16T04:17:27;10.36;65.09
64833;HTU21D;51290;45.060;38.948;2022-10-16T04:19:53;10.38;64.70
64833;HTU21D;51290;45.060;38.948;2022-10-16T04:22:19;10.39;64.82
64833;HTU21D;51290;45.060;38.948;2022-10-16T04:24:44;10.42;65.35
64833;HTU21D;51290;45.060;38.948;2022-10-16T04:27:10;10.43;64.84
64833;HTU21D;51290;45.060;38.948;2022-10-16T04:29:36;10.48;65.21
64833;HTU21D;51290;45.060;38.948;2022-10-16T04:32:02;10.50;64.75
64833;HTU21D;51290;45.060;38.948;2022-10-16T04:34:28;10.53;64.69
64833;HTU21D;51290;45.060;38.948;2022-10-16T04:36:53;10.57;65.62
64833;HTU21D;51290;45.060;38.948;2022-10-16T04:39:20;10.63;64.57
64833;HTU21D;51290;45.060;38.948;2022-10-16T04:41:45;10.68;65.59
64833;HTU21D;51290;45.060;38.948;2022-10-16T04:44:11;10.72;64.68
64833;HTU21D;51290;45.060;38.948;2022-10-16T04:46:37;10.77;64.67
64833;HTU21D;51290;45.060;38.948;2022-10-16T04:49:03;10.82;64.34
64833;HTU21D;51290;45.060;38.948;2022-10-16T04:51:28;10.86;64.66
64833;HTU21D;51290;45.060;38.948;2022-10-16T04:53:55;10.89;64.42
64833;HTU21D;51290;45.060;38.948;2022-10-16T04:56:21;10.94;64.39
64833;HTU21D;51290;45.060;38.948;2022-10-16T04:58:47;10.96;64.59
64833;HTU21D;51290;45.060;38.948;2022-10-16T05:01:13;11.01;64.39
64833;HTU21D;51290;45.060;38.948;2022-10-16T05:03:39;11.05;65.15
64833;HTU21D;51290;45.060;38.948;2022-10-16T05:06:05;11.12;64.75
64833;HTU21D;51290;45.060;38.948;2022-10-16T05:08:31;11.18;64.86
64833;HTU21D;51290;45.060;38.948;2022-10-16T05:10:57;11.26;64.99
64833;HTU21D;51290;45.060;38.948;2022-10-16T05:13:22;11.34;64.57
64833;HTU21D;51290;45.060;38.948;2022-10-16T05:15:49;11.43;64.76
64833;HTU21D;51290;45.060;38.948;2022-10-16T05:18:15;11.52;64.82
64833;HTU21D;51290;45.060;38.948;2022-10-16T05:20:41;11.60;64.54
64833;HTU21D;51290;45.060;38.948;2022-10-16T05:23:07;11.69;64.32
64833;HTU21D;51290;45.060;38.948;2022-10-16T05:25:33;11.82;64.47
64833;HTU21D;51290;45.060;38.948;2022-10-16T05:27:58;11.92;64.79
64833;HTU21D;51290;45.060;38.948;2022-10-16T05:30:25;12.02;64.30
64833;HTU21D;51290;45.060;38.948;2022-10-16T05:32:51;12.12;65.16
64833;HTU21D;51290;45.060;38.948;2022-10-16T05:35:17;12.16;64.49
64833;HTU21D;51290;45.060;38.948;2022-10-16T05:37:43;12.22;64.76
64833;HTU21D;51290;45.060;38.948;2022-10-16T05:40:09;12.30;65.56
64833;HTU21D;51290;45.060;38.948;2022-10-16T05:42:35;12.36;64.41
64833;HTU21D;51290;45.060;38.948;2022-10-16T05:45:01;12.46;64.33
64833;HTU21D;51290;45.060;38.948;2022-10-16T05:47:27;12.58;64.14
64833;HTU21D;51290;45.060;38.948;2022-10-16T05:49:53;12.72;64.34
64833;HTU21D;51290;45.060;38.948;2022-10-16T05:52:18;12.87;64.10
64833;HTU21D;51290;45.060;38.948;2022-10-16T05:54:44;13.01;63.98
64833;HTU21D;51290;45.060;38.948;2022-10-16T05:57:10;13.12;63.78
64833;HTU21D;51290;45.060;38.948;2022-10-16T05:59:36;13.19;63.66
64833;HTU21D;51290;45.060;38.948;2022-10-16T06:02:02;13.26;63.94
64833;HTU21D;51290;45.060;38.948;2022-10-16T06:04:28;13.31;64.01
64833;HTU21D;51290;45.060;38.948;2022-10-16T06:06:53;13.36;64.11
64833;HTU21D;51290;45.060;38.948;2022-10-16T06:09:19;13.43;64.12
64833;HTU21D;51290;45.060;38.948;2022-10-16T06:11:45;13.50;63.85
64833;HTU21D;51290;45.060;38.948;2022-10-16T06:14:10;13.56;63.98
64833;HTU21D;51290;45.060;38.948;2022-10-16T06:16:36;0.00;63.76
64833;HTU21D;51290;45.060;38.948;2022-10-16T06:19:03;13.73;64.32
64833;HTU21D;51290;45.060;38.948;2022-10-16T06:21:31;0.00;64.38
64833;HTU21D;51290;45.060;38.948;2022-10-16T06:23:57;13.86;64.10
64833;HTU21D;51290;45.060;38.948;2022-10-16T06:26:24;13.94;63.82
64833;HTU21D;51290;45.060;38.948;2022-10-16T06:28:50;14.00;63.89
64833;HTU21D;51290;45.060;38.948;2022-10-16T06:31:16;14.07;63.77
64833;HTU21D;51290;45.060;38.948;2022-10-16T06:33:42;14.13;63.66
64833;HTU21D;51290;45.060;38.948;2022-10-16T06:36:11;14.20;63.65
64833;HTU21D;51290;45.060;38.948;2022-10-16T06:38:38;14.26;63.92
64833;HTU21D;51290;45.060;38.948;2022-10-16T06:41:04;14.33;64.05
64833;HTU21D;51290;45.060;38.948;2022-10-16T06:43:30;14.40;63.66
64833;HTU21D;51290;45.060;38.948;2022-10-16T06:46:03;14.49;63.78
64833;HTU21D;51290;45.060;38.948;2022-10-16T06:48:29;14.56;64.01
64833;HTU21D;51290;45.060;38.948;2022-10-16T06:50:59;14.64;64.10
64833;HTU21D;51290;45.060;38.948;2022-10-16T06:53:25;14.73;64.18
64833;HTU21D;51290;45.060;38.948;2022-10-16T06:55:51;14.88;64.00
64833;HTU21D;51290;45.060;38.948;2022-10-16T06:58:17;15.03;64.18
64833;HTU21D;51290;45.060;38.948;2022-10-16T07:00:43;15.15;63.49
64833;HTU21D;51290;45.060;38.948;2022-10-16T07:03:09;15.25;63.72
64833;HTU21D;51290;45.060;38.948;2022-10-16T07:05:38;15.30;63.76
64833;HTU21D;51290;45.060;38.948;2022-10-16T07:08:04;15.34;63.37
64833;HTU21D;51290;45.060;38.948;2022-10-16T07:10:31;15.41;63.56
64833;HTU21D;51290;45.060;38.948;2022-10-16T07:12:56;15.46;63.30
64833;HTU21D;51290;45.060;38.948;2022-10-16T07:15:22;15.55;63.34
64833;HTU21D;51290;45.060;38.948;2022-10-16T07:17:48;15.59;63.59
64833;HTU21D;51290;45.060;38.948;2022-10-16T07:20:14;15.65;63.66
64833;HTU21D;51290;45.060;38.948;2022-10-16T07:22:40;15.73;63.40
64833;HTU21D;51290;45.060;38.948;2022-10-16T07:25:05;15.78;63.55
64833;HTU21D;51290;45.060;38.948;2022-10-16T07:27:31;15.82;63.36
64833;HTU21D;51290;45.060;38.948;2022-10-16T07:29:57;15.84;63.58
64833;HTU21D;51290;45.060;38.948;2022-10-16T07:32:23;15.85;63.53
64833;HTU21D;51290;45.060;38.948;2022-10-16T07:34:51;15.88;63.31
64833;HTU21D;51290;45.060;38.948;2022-10-16T07:37:17;15.91;63.31
64833;HTU21D;51290;45.060;38.948;2022-10-16T07:39:42;15.97;63.20
64833;HTU21D;51290;45.060;38.948;2022-10-16T07:42:08;16.06;63.19
64833;HTU21D;51290;45.060;38.948;2022-10-16T07:44:34;16.20;63.24
64833;HTU21D;51290;45.060;38.948;2022-10-16T07:47:00;16.33;63.00
64833;HTU21D;51290;45.060;38.948;2022-10-16T07:49:25;16.45;62.79
64833;HTU21D;51290;45.060;38.948;2022-10-16T07:51:51;16.51;62.57
64833;HTU21D;51290;45.060;38.948;2022-10-16T07:54:17;16.56;62.45
64833;HTU21D;51290;45.060;38.948;2022-10-16T07:56:43;16.60;62.42
64833;HTU21D;51290;45.060;38.948;2022-10-16T07:59:08;16.65;62.37
64833;HTU21D;51290;45.060;38.948;2022-10-16T08:01:34;16.71;62.26
64833;HTU21D;51290;45.060;38.948;2022-10-16T08:04:00;16.75;62.21
64833;HTU21D;51290;45.060;38.948;2022-10-16T08:06:26;16.77;62.22
64833;HTU21D;51290;45.060;38.948;2022-10-16T08:08:52;16.80;62.15
64833;HTU21D;51290;45.060;38.948;2022-10-16T08:11:17;16.77;62.06
64833;HTU21D;51290;45.060;38.948;2022-10-16T08:13:43;16.72;62.05
64833;HTU21D;51290;45.060;38.948;2022-10-16T08:16:09;16.70;62.17
64833;HTU21D;51290;45.060;38.948;2022-10-16T08:18:36;16.72;62.26
64833;HTU21D;51290;45.060;38.948;2022-10-16T08:21:02;16.74;62.31
64833;HTU21D;51290;45.060;38.948;2022-10-16T08:23:28;16.81;62.34
64833;HTU21D;51290;45.060;38.948;2022-10-16T08:25:54;16.92;62.47
64833;HTU21D;51290;45.060;38.948;2022-10-16T08:28:21;17.03;62.37
64833;HTU21D;51290;45.060;38.948;2022-10-16T08:30:47;17.14;62.31
64833;HTU21D;51290;45.060;38.948;2022-10-16T08:33:13;17.28;62.20
64833;HTU21D;51290;45.060;38.948;2022-10-16T08:35:38;17.44;62.02
64833;HTU21D;51290;45.060;38.948;2022-10-16T08:38:04;17.58;61.76
64833;HTU21D;51290;45.060;38.948;2022-10-16T08:40:31;17.66;61.54
64833;HTU21D;51290;45.060;38.948;2022-10-16T08:48:21;17.69;61.12
64833;HTU21D;51290;45.060;38.948;2022-10-16T08:50:51;17.66;61.21
64833;HTU21D;51290;45.060;38.948;2022-10-16T08:53:51;17.66;61.31
64833;HTU21D;51290;45.060;38.948;2022-10-16T08:56:09;17.69;61.31
64833;HTU21D;51290;45.060;38.948;2022-10-16T08:58:35;17.75;61.35
64833;HTU21D;51290;45.060;38.948;2022-10-16T09:01:01;17.77;61.17
64833;HTU21D;51290;45.060;38.948;2022-10-16T09:11:32;17.82;61.04
64833;HTU21D;51290;45.060;38.948;2022-10-16T09:14:23;17.83;61.12
64833;HTU21D;51290;45.060;38.948;2022-10-16T09:17:00;17.87;61.21
64833;HTU21D;51290;45.060;38.948;2022-10-16T09:19:34;17.95;61.23
64833;HTU21D;51290;45.060;38.948;2022-10-16T09:22:14;18.02;61.09
64833;HTU21D;51290;45.060;38.948;2022-10-16T09:24:41;18.05;60.92
64833;HTU21D;51290;45.060;38.948;2022-10-16T09:27:10;18.08;60.70
64833;HTU21D;51290;45.060;38.948;2022-10-16T09:29:36;18.09;60.58
64833;HTU21D;51290;45.060;38.948;2022-10-16T09:32:12;18.11;60.37
64833;HTU21D;51290;45.060;38.948;2022-10-16T09:34:39;18.21;60.51
64833;HTU21D;51290;45.060;38.948;2022-10-16T09:37:10;18.28;60.61
64833;HTU21D;51290;45.060;38.948;2022-10-16T09:42:18;18.37;59.96
64833;HTU21D;51290;45.060;38.948;2022-10-16T09:44:50;18.39;60.00
64833;HTU21D;51290;45.060;38.948;2022-10-16T09:47:18;18.38;60.02
64833;HTU21D;51290;45.060;38.948;2022-10-16T09:49:59;18.33;60.19
64833;HTU21D;51290;45.060;38.948;2022-10-16T09:52:28;18.30;60.10
64833;HTU21D;51290;45.060;38.948;2022-10-16T09:54:55;18.30;59.93
64833;HTU21D;51290;45.060;38.948;2022-10-16T09:57:21;18.29;59.83
64833;HTU21D;51290;45.060;38.948;2022-10-16T09:59:48;18.30;60.04
64833;HTU21D;51290;45.060;38.948;2022-10-16T10:02:15;18.29;59.93
64833;HTU21D;51290;45.060;38.948;2022-10-16T10:04:44;18.33;60.14
64833;HTU21D;51290;45.060;38.948;2022-10-16T10:07:21;18.38;60.14
64833;HTU21D;51290;45.060;38.948;2022-10-16T10:09:49;18.44;60.24
64833;HTU21D;51290;45.060;38.948;2022-10-16T10:12:17;18.54;60.13
64833;HTU21D;51290;45.060;38.948;2022-10-16T10:14:48;18.64;60.03
64833;HTU21D;51290;45.060;38.948;2022-10-16T10:19:57;18.77;59.67
64833;HTU21D;51290;45.060;38.948;2022-10-16T10:24:55;18.77;59.47
64833;HTU21D;51290;45.060;38.948;2022-10-16T10:27:21;18.77;58.92
64833;HTU21D;51290;45.060;38.948;2022-10-16T10:29:53;18.74;59.33
64833;HTU21D;51290;45.060;38.948;2022-10-16T10:32:28;18.74;59.33
64833;HTU21D;51290;45.060;38.948;2022-10-16T10:37:33;18.78;59.54
64833;HTU21D;51290;45.060;38.948;2022-10-16T10:45:16;18.92;59.21
64833;HTU21D;51290;45.060;38.948;2022-10-16T10:47:53;18.94;59.22
64833;HTU21D;51290;45.060;38.948;2022-10-16T10:52:53;18.94;59.13
64833;HTU21D;51290;45.060;38.948;2022-10-16T10:55:40;18.96;58.97
64833;HTU21D;51290;45.060;38.948;2022-10-16T11:00:42;18.94;59.08
64833;HTU21D;51290;45.060;38.948;2022-10-16T11:06:01;18.91;58.76
64833;HTU21D;51290;45.060;38.948;2022-10-16T11:08:41;18.88;58.46
64833;HTU21D;51290;45.060;38.948;2022-10-16T11:11:10;18.84;58.74
64833;HTU21D;51290;45.060;38.948;2022-10-16T11:13:42;18.84;58.72
64833;HTU21D;51290;45.060;38.948;2022-10-16T11:16:13;18.82;58.68
64833;HTU21D;51290;45.060;38.948;2022-10-16T11:21:11;18.81;58.41
64833;HTU21D;51290;45.060;38.948;2022-10-16T11:23:42;18.80;58.47
64833;HTU21D;51290;45.060;38.948;2022-10-16T11:26:12;18.77;58.50
64833;HTU21D;51290;45.060;38.948;2022-10-16T11:28:45;18.76;58.66
64833;HTU21D;51290;45.060;38.948;2022-10-16T11:31:15;18.79;58.80
64833;HTU21D;51290;45.060;38.948;2022-10-16T11:33:47;18.84;58.94
64833;HTU21D;51290;45.060;38.948;2022-10-16T11:36:19;18.88;58.89
64833;HTU21D;51290;45.060;38.948;2022-10-16T11:41:20;18.95;58.30
64833;HTU21D;51290;45.060;38.948;2022-10-16T11:44:08;19.00;58.75
64833;HTU21D;51290;45.060;38.948;2022-10-16T11:46:36;19.07;58.27
64833;HTU21D;51290;45.060;38.948;2022-10-16T11:49:25;19.10;57.55
64833;HTU21D;51290;45.060;38.948;2022-10-16T11:56:48;19.06;57.96
64833;HTU21D;51290;45.060;38.948;2022-10-16T11:59:25;19.01;57.65
64833;HTU21D;51290;45.060;38.948;2022-10-16T12:01:56;18.98;57.66
64833;HTU21D;51290;45.060;38.948;2022-10-16T12:04:34;18.94;57.95
64833;HTU21D;51290;45.060;38.948;2022-10-16T12:07:24;18.91;58.00
64833;HTU21D;51290;45.060;38.948;2022-10-16T12:09:52;18.88;58.00
64833;HTU21D;51290;45.060;38.948;2022-10-16T12:15:03;18.86;58.19
64833;HTU21D;51290;45.060;38.948;2022-10-16T12:17:40;18.84;57.74
64833;HTU21D;51290;45.060;38.948;2022-10-16T12:23:20;18.82;58.22
64833;HTU21D;51290;45.060;38.948;2022-10-16T12:25:28;18.82;58.03
64833;HTU21D;51290;45.060;38.948;2022-10-16T12:27:55;18.78;57.89
64833;HTU21D;51290;45.060;38.948;2022-10-16T12:30:22;18.76;58.03
64833;HTU21D;51290;45.060;38.948;2022-10-16T12:33:00;18.73;58.25
64833;HTU21D;51290;45.060;38.948;2022-10-16T12:35:28;18.74;57.96
64833;HTU21D;51290;45.060;38.948;2022-10-16T12:38:03;18.72;58.26
64833;HTU21D;51290;45.060;38.948;2022-10-16T12:40:32;18.70;57.99
64833;HTU21D;51290;45.060;38.948;2022-10-16T12:42:58;18.67;58.14
64833;HTU21D;51290;45.060;38.948;2022-10-16T12:47:53;18.59;58.29
64833;HTU21D;51290;45.060;38.948;2022-10-16T12:50:25;18.55;58.36
64833;HTU21D;51290;45.060;38.948;2022-10-16T12:52:52;18.54;58.35
64833;HTU21D;51290;45.060;38.948;2022-10-16T12:55:18;18.50;58.43
64833;HTU21D;51290;45.060;38.948;2022-10-16T13:00:18;18.44;58.48
64833;HTU21D;51290;45.060;38.948;2022-10-16T13:02:51;18.38;58.58
64833;HTU21D;51290;45.060;38.948;2022-10-16T13:05:26;18.35;58.69
64833;HTU21D;51290;45.060;38.948;2022-10-16T13:10:24;18.28;58.84
64833;HTU21D;51290;45.060;38.948;2022-10-16T13:13:02;18.24;58.93
64833;HTU21D;51290;45.060;38.948;2022-10-16T13:15:34;18.19;59.03
64833;HTU21D;51290;45.060;38.948;2022-10-16T13:18:14;18.13;59.03
64833;HTU21D;51290;45.060;38.948;2022-10-16T13:20:56;18.08;59.08
64833;HTU21D;51290;45.060;38.948;2022-10-16T13:23:29;18.04;59.17
64833;HTU21D;51290;45.060;38.948;2022-10-16T13:26:13;18.02;59.23
64833;HTU21D;51290;45.060;38.948;2022-10-16T13:28:42;17.98;59.25
64833;HTU21D;51290;45.060;38.948;2022-10-16T13:31:18;17.95;59.26
64833;HTU21D;51290;45.060;38.948;2022-10-16T13:33:46;17.94;59.26
64833;HTU21D;51290;45.060;38.948;2022-10-16T13:36:24;17.91;59.28
64833;HTU21D;51290;45.060;38.948;2022-10-16T13:41:34;17.81;59.37
64833;HTU21D;51290;45.060;38.948;2022-10-16T13:44:00;17.76;59.42
64833;HTU21D;51290;45.060;38.948;2022-10-16T13:46:26;17.73;59.45
64833;HTU21D;51290;45.060;38.948;2022-10-16T13:48:58;17.70;59.48
64833;HTU21D;51290;45.060;38.948;2022-10-16T13:51:25;17.66;59.40
64833;HTU21D;51290;45.060;38.948;2022-10-16T13:53:51;17.64;59.48
64833;HTU21D;51290;45.060;38.948;2022-10-16T13:56:18;17.60;59.43
64833;HTU21D;51290;45.060;38.948;2022-10-16T13:58:44;17.56;59.43
64833;HTU21D;51290;45.060;38.948;2022-10-16T14:01:17;17.52;59.29
64833;HTU21D;51290;45.060;38.948;2022-10-16T14:03:43;17.47;59.19
64833;HTU21D;51290;45.060;38.948;2022-10-16T14:06:17;17.39;59.37
64833;HTU21D;51290;45.060;38.948;2022-10-16T14:08:44;17.35;59.44
64833;HTU21D;51290;45.060;38.948;2022-10-16T14:11:11;17.29;59.44
64833;HTU21D;51290;45.060;38.948;2022-10-16T14:13:38;17.24;59.44
64833;HTU21D;51290;45.060;38.948;2022-10-16T14:16:09;17.19;59.55
64833;HTU21D;51290;45.060;38.948;2022-10-16T14:18:35;17.14;59.56
64833;HTU21D;51290;45.060;38.948;2022-10-16T14:21:11;17.09;59.56
64833;HTU21D;51290;45.060;38.948;2022-10-16T14:23:38;17.04;59.67
64833;HTU21D;51290;45.060;38.948;2022-10-16T14:28:38;16.96;59.75
64833;HTU21D;51290;45.060;38.948;2022-10-16T14:33:51;16.87;59.82
64833;HTU21D;51290;45.060;38.948;2022-10-16T14:36:17;16.85;59.85
64833;HTU21D;51290;45.060;38.948;2022-10-16T14:38:49;16.79;59.92
64833;HTU21D;51290;45.060;38.948;2022-10-16T14:41:20;16.76;59.95
64833;HTU21D;51290;45.060;38.948;2022-10-16T14:43:49;16.74;60.07
64833;HTU21D;51290;45.060;38.948;2022-10-16T14:46:16;16.70;60.10
64833;HTU21D;51290;45.060;38.948;2022-10-16T14:48:43;16.66;60.18
64833;HTU21D;51290;45.060;38.948;2022-10-16T14:51:16;16.64;60.42
64833;HTU21D;51290;45.060;38.948;2022-10-16T14:53:42;16.61;60.35
64833;HTU21D;51290;45.060;38.948;2022-10-16T14:56:08;16.59;60.31
64833;HTU21D;51290;45.060;38.948;2022-10-16T14:58:38;16.58;60.37
64833;HTU21D;51290;45.060;38.948;2022-10-16T15:01:03;16.52;60.62
64833;HTU21D;51290;45.060;38.948;2022-10-16T15:03:32;16.52;60.78
64833;HTU21D;51290;45.060;38.948;2022-10-16T15:05:57;16.48;60.77
64833;HTU21D;51290;45.060;38.948;2022-10-16T15:08:23;16.48;60.99
64833;HTU21D;51290;45.060;38.948;2022-10-16T15:10:49;16.45;61.09
64833;HTU21D;51290;45.060;38.948;2022-10-16T15:13:15;16.43;61.16
64833;HTU21D;51290;45.060;38.948;2022-10-16T15:15:44;16.40;60.80
64833;HTU21D;51290;45.060;38.948;2022-10-16T15:18:11;16.37;60.97
64833;HTU21D;51290;45.060;38.948;2022-10-16T15:20:37;16.31;60.99
64833;HTU21D;51290;45.060;38.948;2022-10-16T15:23:05;16.30;60.99
64833;HTU21D;51290;45.060;38.948;2022-10-16T15:27:58;16.26;61.29
64833;HTU21D;51290;45.060;38.948;2022-10-16T15:30:25;16.24;61.08
64833;HTU21D;51290;45.060;38.948;2022-10-16T15:32:50;16.20;61.03
64833;HTU21D;51290;45.060;38.948;2022-10-16T15:35:16;16.19;61.50
64833;HTU21D;51290;45.060;38.948;2022-10-16T15:37:42;16.17;61.33
64833;HTU21D;51290;45.060;38.948;2022-10-16T15:40:08;16.14;61.57
64833;HTU21D;51290;45.060;38.948;2022-10-16T15:42:34;16.13;61.51
64833;HTU21D;51290;45.060;38.948;2022-10-16T15:45:00;16.10;61.67
64833;HTU21D;51290;45.060;38.948;2022-10-16T15:47:26;16.10;61.57
64833;HTU21D;51290;45.060;38.948;2022-10-16T15:49:52;16.08;61.83
64833;HTU21D;51290;45.060;38.948;2022-10-16T15:52:18;16.06;61.66
64833;HTU21D;51290;45.060;38.948;2022-10-16T15:54:43;16.04;61.49
64833;HTU21D;51290;45.060;38.948;2022-10-16T15:57:09;16.03;61.54
64833;HTU21D;51290;45.060;38.948;2022-10-16T15:59:35;16.00;61.66
64833;HTU21D;51290;45.060;38.948;2022-10-16T16:02:01;15.98;61.88
64833;HTU21D;51290;45.060;38.948;2022-10-16T16:04:29;15.97;61.89
64833;HTU21D;51290;45.060;38.948;2022-10-16T16:06:55;15.96;61.73
64833;HTU21D;51290;45.060;38.948;2022-10-16T16:09:20;15.95;61.76
64833;HTU21D;51290;45.060;38.948;2022-10-16T16:11:46;15.92;62.08
64833;HTU21D;51290;45.060;38.948;2022-10-16T16:14:13;15.91;62.02
64833;HTU21D;51290;45.060;38.948;2022-10-16T16:16:39;15.90;62.10
64833;HTU21D;51290;45.060;38.948;2022-10-16T16:19:06;15.90;62.38
64833;HTU21D;51290;45.060;38.948;2022-10-16T16:21:32;15.88;62.07
64833;HTU21D;51290;45.060;38.948;2022-10-16T16:23:58;15.87;62.79
64833;HTU21D;51290;45.060;38.948;2022-10-16T16:26:28;15.85;62.36
64833;HTU21D;51290;45.060;38.948;2022-10-16T16:28:57;15.85;62.93
64833;HTU21D;51290;45.060;38.948;2022-10-16T16:31:24;15.84;63.08
64833;HTU21D;51290;45.060;38.948;2022-10-16T16:33:50;15.85;63.51